sensor_id;sensor_type;location;lat;lon;timestamp;P1;durP1;ratioP1;P2;durP2;ratioP2
12042;SDS011;6082;49.306;12.862;2023-05-16T00:01:53;4.57;;;3.83;;
12042;SDS011;6082;49.306;12.862;2023-05-16T00:04:19;5.77;;;4.17;;
12042;SDS011;6082;49.306;12.862;2023-05-16T00:06:45;5.77;;;3.97;;
12042;SDS011;6082;49.306;12.862;2023-05-16T00:09:11;6.70;;;4.37;;
12042;SDS011;6082;49.306;12.862;2023-05-16T00:11:37;5.33;;;4.30;;
12042;SDS011;6082;49.306;12.862;2023-05-16T00:14:02;6.83;;;4.10;;
12042;SDS011;6082;49.306;12.862;2023-05-16T00:16:29;6.00;;;4.10;;
12042;SDS011;6082;49.306;12.862;2023-05-16T00:18:55;5.10;;;3.67;;
12042;SDS011;6082;49.306;12.862;2023-05-16T00:21:22;4.20;;;3.37;;
12042;SDS011;6082;49.306;12.862;2023-05-16T00:23:49;6.20;;;4.03;;
12042;SDS011;6082;49.306;12.862;2023-05-16T00:26:15;4.80;;;3.50;;
12042;SDS011;6082;49.306;12.862;2023-05-16T00:28:41;3.97;;;3.10;;
12042;SDS011;6082;49.306;12.862;2023-05-16T00:31:06;5.13;;;3.57;;
12042;SDS011;6082;49.306;12.862;2023-05-16T00:33:33;4.50;;;3.63;;
12042;SDS011;6082;49.306;12.862;2023-05-16T00:35:58;5.90;;;3.70;;
12042;SDS011;6082;49.306;12.862;2023-05-16T00:38:24;5.67;;;4.23;;
12042;SDS011;6082;49.306;12.862;2023-05-16T00:40:50;5.93;;;3.83;;
12042;SDS011;6082;49.306;12.862;2023-05-16T00:43:16;3.83;;;3.27;;
12042;SDS011;6082;49.306;12.862;2023-05-16T00:45:42;4.93;;;3.50;;
12042;SDS011;6082;49.306;12.862;2023-05-16T00:48:08;6.40;;;4.03;;
12042;SDS011;6082;49.306;12.862;2023-05-16T00:50:36;4.73;;;3.57;;
12042;SDS011;6082;49.306;12.862;2023-05-16T00:53:02;5.37;;;3.90;;
12042;SDS011;6082;49.306;12.862;2023-05-16T00:55:28;5.77;;;3.87;;
12042;SDS011;6082;49.306;12.862;2023-05-16T00:57:55;4.03;;;3.60;;
12042;SDS011;6082;49.306;12.862;2023-05-16T01:00:23;5.50;;;3.90;;
12042;SDS011;6082;49.306;12.862;2023-05-16T01:02:49;5.33;;;4.17;;
12042;SDS011;6082;49.306;12.862;2023-05-16T01:05:17;6.47;;;4.40;;
12042;SDS011;6082;49.306;12.862;2023-05-16T01:07:44;5.10;;;3.77;;
12042;SDS011;6082;49.306;12.862;2023-05-16T01:10:10;6.93;;;4.77;;
12042;SDS011;6082;49.306;12.862;2023-05-16T01:15:25;5.00;;;3.47;;
12042;SDS011;6082;49.306;12.862;2023-05-16T01:28:35;4.67;;;4.13;;
12042;SDS011;6082;49.306;12.862;2023-05-16T01:31:02;5.83;;;3.90;;
12042;SDS011;6082;49.306;12.862;2023-05-16T01:33:27;5.63;;;4.20;;
12042;SDS011;6082;49.306;12.862;2023-05-16T01:36:05;5.30;;;3.50;;
12042;SDS011;6082;49.306;12.862;2023-05-16T01:38:45;6.87;;;3.67;;
12042;SDS011;6082;49.306;12.862;2023-05-16T01:41:22;6.70;;;3.87;;
12042;SDS011;6082;49.306;12.862;2023-05-16T01:43:54;5.70;;;3.53;;
12042;SDS011;6082;49.306;12.862;2023-05-16T01:46:28;6.80;;;4.30;;
12042;SDS011;6082;49.306;12.862;2023-05-16T01:52:06;6.70;;;3.93;;
12042;SDS011;6082;49.306;12.862;2023-05-16T01:54:35;6.17;;;4.57;;
12042;SDS011;6082;49.306;12.862;2023-05-16T01:57:03;6.57;;;4.60;;
12042;SDS011;6082;49.306;12.862;2023-05-16T01:59:32;5.73;;;3.80;;
12042;SDS011;6082;49.306;12.862;2023-05-16T02:01:58;5.07;;;4.13;;
12042;SDS011;6082;49.306;12.862;2023-05-16T02:04:24;5.57;;;3.70;;
12042;SDS011;6082;49.306;12.862;2023-05-16T02:06:50;4.30;;;3.43;;
12042;SDS011;6082;49.306;12.862;2023-05-16T02:09:16;6.67;;;4.13;;
12042;SDS011;6082;49.306;12.862;2023-05-16T02:11:42;5.33;;;3.70;;
12042;SDS011;6082;49.306;12.862;2023-05-16T02:14:08;4.37;;;3.50;;
12042;SDS011;6082;49.306;12.862;2023-05-16T02:16:34;6.73;;;4.27;;
12042;SDS011;6082;49.306;12.862;2023-05-16T02:19:00;5.17;;;3.77;;
12042;SDS011;6082;49.306;12.862;2023-05-16T02:21:26;4.63;;;3.87;;
12042;SDS011;6082;49.306;12.862;2023-05-16T02:23:52;6.40;;;4.47;;
12042;SDS011;6082;49.306;12.862;2023-05-16T02:26:17;5.70;;;3.77;;
12042;SDS011;6082;49.306;12.862;2023-05-16T02:28:43;4.83;;;3.73;;
12042;SDS011;6082;49.306;12.862;2023-05-16T02:31:09;4.07;;;3.50;;
12042;SDS011;6082;49.306;12.862;2023-05-16T02:33:35;4.80;;;3.53;;
12042;SDS011;6082;49.306;12.862;2023-05-16T02:36:01;4.17;;;3.57;;
12042;SDS011;6082;49.306;12.862;2023-05-16T02:38:27;5.60;;;3.73;;
12042;SDS011;6082;49.306;12.862;2023-05-16T02:40:53;3.90;;;3.30;;
12042;SDS011;6082;49.306;12.862;2023-05-16T02:43:19;5.83;;;3.80;;
12042;SDS011;6082;49.306;12.862;2023-05-16T02:45:44;5.20;;;3.43;;
12042;SDS011;6082;49.306;12.862;2023-05-16T02:48:10;4.47;;;3.33;;
12042;SDS011;6082;49.306;12.862;2023-05-16T02:50:36;5.43;;;4.00;;
12042;SDS011;6082;49.306;12.862;2023-05-16T02:53:04;4.73;;;3.43;;
12042;SDS011;6082;49.306;12.862;2023-05-16T02:55:30;7.27;;;4.83;;
12042;SDS011;6082;49.306;12.862;2023-05-16T02:57:56;6.87;;;4.57;;
12042;SDS011;6082;49.306;12.862;2023-05-16T03:00:21;6.50;;;4.43;;
12042;SDS011;6082;49.306;12.862;2023-05-16T03:02:47;7.60;;;4.93;;
12042;SDS011;6082;49.306;12.862;2023-05-16T03:05:13;7.90;;;3.77;;
12042;SDS011;6082;49.306;12.862;2023-05-16T03:07:39;6.20;;;4.37;;
12042;SDS011;6082;49.306;12.862;2023-05-16T03:10:05;8.03;;;4.73;;
12042;SDS011;6082;49.306;12.862;2023-05-16T03:12:31;7.90;;;4.83;;
12042;SDS011;6082;49.306;12.862;2023-05-16T03:15:00;6.10;;;4.33;;
12042;SDS011;6082;49.306;12.862;2023-05-16T03:17:26;6.13;;;4.07;;
12042;SDS011;6082;49.306;12.862;2023-05-16T03:19:52;6.50;;;4.40;;
12042;SDS011;6082;49.306;12.862;2023-05-16T03:22:18;5.50;;;4.07;;
12042;SDS011;6082;49.306;12.862;2023-05-16T03:24:44;7.50;;;4.20;;
12042;SDS011;6082;49.306;12.862;2023-05-16T03:27:10;6.90;;;4.53;;
12042;SDS011;6082;49.306;12.862;2023-05-16T03:29:36;5.40;;;3.90;;
12042;SDS011;6082;49.306;12.862;2023-05-16T03:32:02;6.23;;;4.40;;
12042;SDS011;6082;49.306;12.862;2023-05-16T03:34:29;8.57;;;4.50;;
12042;SDS011;6082;49.306;12.862;2023-05-16T03:36:54;5.77;;;4.13;;
12042;SDS011;6082;49.306;12.862;2023-05-16T03:39:23;5.50;;;3.97;;
12042;SDS011;6082;49.306;12.862;2023-05-16T03:41:49;4.70;;;3.77;;
12042;SDS011;6082;49.306;12.862;2023-05-16T03:44:16;4.20;;;3.50;;
12042;SDS011;6082;49.306;12.862;2023-05-16T03:46:41;5.97;;;3.97;;
12042;SDS011;6082;49.306;12.862;2023-05-16T03:49:07;6.03;;;4.70;;
12042;SDS011;6082;49.306;12.862;2023-05-16T03:51:33;7.43;;;4.73;;
12042;SDS011;6082;49.306;12.862;2023-05-16T03:54:02;7.10;;;4.23;;
12042;SDS011;6082;49.306;12.862;2023-05-16T03:56:28;6.70;;;4.43;;
12042;SDS011;6082;49.306;12.862;2023-05-16T03:58:53;9.07;;;5.13;;
12042;SDS011;6082;49.306;12.862;2023-05-16T04:01:19;8.87;;;5.97;;
12042;SDS011;6082;49.306;12.862;2023-05-16T04:03:45;7.70;;;5.03;;
12042;SDS011;6082;49.306;12.862;2023-05-16T04:06:10;8.47;;;5.93;;
12042;SDS011;6082;49.306;12.862;2023-05-16T04:08:36;8.27;;;4.70;;
12042;SDS011;6082;49.306;12.862;2023-05-16T04:11:03;5.90;;;4.40;;
12042;SDS011;6082;49.306;12.862;2023-05-16T04:13:29;6.30;;;4.57;;
12042;SDS011;6082;49.306;12.862;2023-05-16T04:15:55;5.07;;;3.90;;
12042;SDS011;6082;49.306;12.862;2023-05-16T04:18:21;4.63;;;3.80;;
12042;SDS011;6082;49.306;12.862;2023-05-16T04:20:46;4.93;;;3.77;;
12042;SDS011;6082;49.306;12.862;2023-05-16T04:23:12;4.87;;;3.97;;
12042;SDS011;6082;49.306;12.862;2023-05-16T04:25:38;5.03;;;3.87;;
12042;SDS011;6082;49.306;12.862;2023-05-16T04:28:04;8.13;;;4.87;;
12042;SDS011;6082;49.306;12.862;2023-05-16T04:30:30;8.87;;;5.50;;
12042;SDS011;6082;49.306;12.862;2023-05-16T04:32:56;6.07;;;4.57;;
12042;SDS011;6082;49.306;12.862;2023-05-16T04:35:23;8.53;;;4.50;;
12042;SDS011;6082;49.306;12.862;2023-05-16T04:37:49;8.37;;;5.20;;
12042;SDS011;6082;49.306;12.862;2023-05-16T04:40:15;5.87;;;4.30;;
12042;SDS011;6082;49.306;12.862;2023-05-16T04:42:41;7.47;;;4.93;;
12042;SDS011;6082;49.306;12.862;2023-05-16T04:45:07;10.00;;;5.73;;
12042;SDS011;6082;49.306;12.862;2023-05-16T04:47:38;9.97;;;6.07;;
12042;SDS011;6082;49.306;12.862;2023-05-16T04:50:05;9.20;;;5.50;;
12042;SDS011;6082;49.306;12.862;2023-05-16T04:52:33;8.83;;;5.63;;
12042;SDS011;6082;49.306;12.862;2023-05-16T04:54:59;9.03;;;6.27;;
12042;SDS011;6082;49.306;12.862;2023-05-16T04:57:25;10.97;;;6.23;;
12042;SDS011;6082;49.306;12.862;2023-05-16T04:59:52;8.10;;;5.97;;
12042;SDS011;6082;49.306;12.862;2023-05-16T05:02:17;6.43;;;5.33;;
12042;SDS011;6082;49.306;12.862;2023-05-16T05:04:43;7.20;;;5.70;;
12042;SDS011;6082;49.306;12.862;2023-05-16T05:07:09;7.33;;;5.17;;
12042;SDS011;6082;49.306;12.862;2023-05-16T05:09:34;6.77;;;5.13;;
12042;SDS011;6082;49.306;12.862;2023-05-16T05:12:00;7.53;;;4.73;;
12042;SDS011;6082;49.306;12.862;2023-05-16T05:14:26;7.63;;;5.27;;
12042;SDS011;6082;49.306;12.862;2023-05-16T05:16:52;7.90;;;5.50;;
12042;SDS011;6082;49.306;12.862;2023-05-16T05:19:17;7.17;;;4.70;;
12042;SDS011;6082;49.306;12.862;2023-05-16T05:21:43;7.37;;;5.37;;
12042;SDS011;6082;49.306;12.862;2023-05-16T05:24:09;5.57;;;4.00;;
12042;SDS011;6082;49.306;12.862;2023-05-16T05:26:35;5.67;;;4.00;;
12042;SDS011;6082;49.306;12.862;2023-05-16T05:29:01;4.37;;;3.40;;
12042;SDS011;6082;49.306;12.862;2023-05-16T05:31:26;5.23;;;3.97;;
12042;SDS011;6082;49.306;12.862;2023-05-16T05:33:52;6.73;;;4.83;;
12042;SDS011;6082;49.306;12.862;2023-05-16T05:36:18;6.40;;;5.27;;
12042;SDS011;6082;49.306;12.862;2023-05-16T05:38:44;7.30;;;4.73;;
12042;SDS011;6082;49.306;12.862;2023-05-16T05:41:10;6.03;;;4.77;;
12042;SDS011;6082;49.306;12.862;2023-05-16T05:43:36;5.57;;;4.50;;
12042;SDS011;6082;49.306;12.862;2023-05-16T05:46:02;5.73;;;4.73;;
12042;SDS011;6082;49.306;12.862;2023-05-16T05:48:28;5.77;;;4.00;;
12042;SDS011;6082;49.306;12.862;2023-05-16T05:50:54;6.93;;;4.87;;
12042;SDS011;6082;49.306;12.862;2023-05-16T05:53:20;7.17;;;5.53;;
12042;SDS011;6082;49.306;12.862;2023-05-16T05:55:46;7.77;;;5.87;;
12042;SDS011;6082;49.306;12.862;2023-05-16T05:58:11;7.30;;;5.53;;
12042;SDS011;6082;49.306;12.862;2023-05-16T06:00:37;8.23;;;6.37;;
12042;SDS011;6082;49.306;12.862;2023-05-16T06:03:03;8.20;;;6.43;;
12042;SDS011;6082;49.306;12.862;2023-05-16T06:05:29;7.87;;;5.87;;
12042;SDS011;6082;49.306;12.862;2023-05-16T06:07:54;9.17;;;6.10;;
12042;SDS011;6082;49.306;12.862;2023-05-16T06:10:20;6.90;;;5.20;;
12042;SDS011;6082;49.306;12.862;2023-05-16T06:12:46;8.23;;;6.53;;
12042;SDS011;6082;49.306;12.862;2023-05-16T06:15:11;9.83;;;6.20;;
12042;SDS011;6082;49.306;12.862;2023-05-16T06:17:37;11.27;;;6.53;;
12042;SDS011;6082;49.306;12.862;2023-05-16T06:20:03;7.40;;;5.73;;
12042;SDS011;6082;49.306;12.862;2023-05-16T06:22:29;8.30;;;6.57;;
12042;SDS011;6082;49.306;12.862;2023-05-16T06:24:55;8.83;;;6.83;;
12042;SDS011;6082;49.306;12.862;2023-05-16T06:27:21;8.23;;;6.37;;
12042;SDS011;6082;49.306;12.862;2023-05-16T06:29:46;8.47;;;6.33;;
12042;SDS011;6082;49.306;12.862;2023-05-16T06:32:12;11.33;;;6.50;;
12042;SDS011;6082;49.306;12.862;2023-05-16T06:34:38;9.03;;;6.80;;
12042;SDS011;6082;49.306;12.862;2023-05-16T06:37:05;9.73;;;6.93;;
12042;SDS011;6082;49.306;12.862;2023-05-16T06:39:31;9.53;;;7.27;;
12042;SDS011;6082;49.306;12.862;2023-05-16T06:41:56;12.33;;;7.17;;
12042;SDS011;6082;49.306;12.862;2023-05-16T06:44:22;8.87;;;7.07;;
12042;SDS011;6082;49.306;12.862;2023-05-16T06:46:48;10.00;;;7.27;;
12042;SDS011;6082;49.306;12.862;2023-05-16T06:49:14;12.40;;;7.70;;
12042;SDS011;6082;49.306;12.862;2023-05-16T06:51:39;10.33;;;7.33;;
12042;SDS011;6082;49.306;12.862;2023-05-16T06:54:05;10.27;;;7.03;;
12042;SDS011;6082;49.306;12.862;2023-05-16T06:56:31;12.20;;;8.10;;
12042;SDS011;6082;49.306;12.862;2023-05-16T06:58:57;8.17;;;7.17;;
12042;SDS011;6082;49.306;12.862;2023-05-16T07:01:22;10.67;;;7.13;;
12042;SDS011;6082;49.306;12.862;2023-05-16T07:03:48;12.60;;;8.27;;
12042;SDS011;6082;49.306;12.862;2023-05-16T07:06:14;9.37;;;6.70;;
12042;SDS011;6082;49.306;12.862;2023-05-16T07:08:40;8.10;;;6.73;;
12042;SDS011;6082;49.306;12.862;2023-05-16T07:11:05;9.67;;;7.07;;
12042;SDS011;6082;49.306;12.862;2023-05-16T07:13:31;10.63;;;7.50;;
12042;SDS011;6082;49.306;12.862;2023-05-16T07:15:57;8.37;;;6.67;;
12042;SDS011;6082;49.306;12.862;2023-05-16T07:18:22;9.77;;;7.37;;
12042;SDS011;6082;49.306;12.862;2023-05-16T07:20:48;9.60;;;7.57;;
12042;SDS011;6082;49.306;12.862;2023-05-16T07:23:14;9.93;;;7.07;;
12042;SDS011;6082;49.306;12.862;2023-05-16T07:25:40;12.57;;;8.00;;
12042;SDS011;6082;49.306;12.862;2023-05-16T07:28:06;8.63;;;6.70;;
12042;SDS011;6082;49.306;12.862;2023-05-16T07:30:32;10.53;;;7.37;;
12042;SDS011;6082;49.306;12.862;2023-05-16T07:32:58;9.17;;;7.20;;
12042;SDS011;6082;49.306;12.862;2023-05-16T07:35:24;10.40;;;7.50;;
12042;SDS011;6082;49.306;12.862;2023-05-16T07:37:50;9.23;;;7.13;;
12042;SDS011;6082;49.306;12.862;2023-05-16T07:40:16;11.37;;;7.80;;
12042;SDS011;6082;49.306;12.862;2023-05-16T07:42:42;8.20;;;6.83;;
12042;SDS011;6082;49.306;12.862;2023-05-16T07:45:08;8.47;;;6.90;;
12042;SDS011;6082;49.306;12.862;2023-05-16T07:47:34;9.83;;;6.97;;
12042;SDS011;6082;49.306;12.862;2023-05-16T07:50:00;9.30;;;7.20;;
12042;SDS011;6082;49.306;12.862;2023-05-16T07:52:26;11.10;;;7.57;;
12042;SDS011;6082;49.306;12.862;2023-05-16T07:54:51;8.90;;;6.60;;
12042;SDS011;6082;49.306;12.862;2023-05-16T07:57:17;8.53;;;6.03;;
12042;SDS011;6082;49.306;12.862;2023-05-16T07:59:43;9.57;;;6.80;;
12042;SDS011;6082;49.306;12.862;2023-05-16T08:02:09;9.27;;;6.93;;
12042;SDS011;6082;49.306;12.862;2023-05-16T08:04:35;8.43;;;6.60;;
12042;SDS011;6082;49.306;12.862;2023-05-16T08:07:01;7.73;;;6.30;;
12042;SDS011;6082;49.306;12.862;2023-05-16T08:09:27;9.47;;;6.43;;
12042;SDS011;6082;49.306;12.862;2023-05-16T08:11:53;9.10;;;6.47;;
12042;SDS011;6082;49.306;12.862;2023-05-16T08:14:19;8.50;;;6.70;;
12042;SDS011;6082;49.306;12.862;2023-05-16T08:16:45;9.87;;;7.33;;
12042;SDS011;6082;49.306;12.862;2023-05-16T08:19:13;9.10;;;6.67;;
12042;SDS011;6082;49.306;12.862;2023-05-16T08:21:39;7.80;;;6.03;;
12042;SDS011;6082;49.306;12.862;2023-05-16T08:24:05;8.87;;;6.57;;
12042;SDS011;6082;49.306;12.862;2023-05-16T08:26:31;10.00;;;7.43;;
12042;SDS011;6082;49.306;12.862;2023-05-16T08:28:57;9.80;;;7.10;;
12042;SDS011;6082;49.306;12.862;2023-05-16T08:31:22;10.40;;;6.77;;
12042;SDS011;6082;49.306;12.862;2023-05-16T08:33:48;10.87;;;7.07;;
12042;SDS011;6082;49.306;12.862;2023-05-16T08:36:14;8.37;;;6.80;;
12042;SDS011;6082;49.306;12.862;2023-05-16T08:38:42;8.60;;;6.80;;
12042;SDS011;6082;49.306;12.862;2023-05-16T08:41:08;8.87;;;6.67;;
12042;SDS011;6082;49.306;12.862;2023-05-16T08:43:34;7.93;;;5.90;;
12042;SDS011;6082;49.306;12.862;2023-05-16T08:46:00;8.10;;;6.60;;
12042;SDS011;6082;49.306;12.862;2023-05-16T08:48:26;9.03;;;7.57;;
12042;SDS011;6082;49.306;12.862;2023-05-16T08:50:52;9.47;;;7.30;;
12042;SDS011;6082;49.306;12.862;2023-05-16T08:53:20;9.43;;;7.33;;
12042;SDS011;6082;49.306;12.862;2023-05-16T08:55:51;9.80;;;6.47;;
12042;SDS011;6082;49.306;12.862;2023-05-16T08:58:17;8.80;;;6.97;;
12042;SDS011;6082;49.306;12.862;2023-05-16T09:00:44;8.70;;;7.13;;
12042;SDS011;6082;49.306;12.862;2023-05-16T09:03:11;9.60;;;6.97;;
12042;SDS011;6082;49.306;12.862;2023-05-16T09:05:37;8.87;;;6.80;;
12042;SDS011;6082;49.306;12.862;2023-05-16T09:08:03;11.10;;;6.60;;
12042;SDS011;6082;49.306;12.862;2023-05-16T09:10:30;7.80;;;6.53;;
12042;SDS011;6082;49.306;12.862;2023-05-16T09:12:56;9.73;;;6.97;;
12042;SDS011;6082;49.306;12.862;2023-05-16T09:15:22;9.80;;;6.33;;
12042;SDS011;6082;49.306;12.862;2023-05-16T09:17:48;9.13;;;7.27;;
12042;SDS011;6082;49.306;12.862;2023-05-16T09:20:15;10.37;;;6.90;;
12042;SDS011;6082;49.306;12.862;2023-05-16T09:22:56;7.37;;;6.17;;
12042;SDS011;6082;49.306;12.862;2023-05-16T09:25:24;10.33;;;6.93;;
12042;SDS011;6082;49.306;12.862;2023-05-16T09:27:54;8.67;;;6.90;;
12042;SDS011;6082;49.306;12.862;2023-05-16T09:30:20;8.97;;;6.47;;
12042;SDS011;6082;49.306;12.862;2023-05-16T09:32:54;8.90;;;6.37;;
12042;SDS011;6082;49.306;12.862;2023-05-16T09:35:20;10.80;;;7.20;;
12042;SDS011;6082;49.306;12.862;2023-05-16T09:37:47;10.73;;;7.13;;
12042;SDS011;6082;49.306;12.862;2023-05-16T09:40:13;6.87;;;6.17;;
12042;SDS011;6082;49.306;12.862;2023-05-16T09:42:41;7.97;;;6.10;;
12042;SDS011;6082;49.306;12.862;2023-05-16T09:45:11;9.27;;;6.83;;
12042;SDS011;6082;49.306;12.862;2023-05-16T09:47:38;8.03;;;6.30;;
12042;SDS011;6082;49.306;12.862;2023-05-16T09:50:10;8.97;;;6.17;;
12042;SDS011;6082;49.306;12.862;2023-05-16T09:52:40;9.23;;;6.10;;
12042;SDS011;6082;49.306;12.862;2023-05-16T09:55:07;7.83;;;6.50;;
12042;SDS011;6082;49.306;12.862;2023-05-16T09:57:36;10.27;;;6.50;;
12042;SDS011;6082;49.306;12.862;2023-05-16T10:00:04;8.13;;;6.10;;
12042;SDS011;6082;49.306;12.862;2023-05-16T10:02:33;8.53;;;5.80;;
12042;SDS011;6082;49.306;12.862;2023-05-16T10:05:01;8.77;;;6.27;;
12042;SDS011;6082;49.306;12.862;2023-05-16T10:07:27;7.27;;;6.30;;
12042;SDS011;6082;49.306;12.862;2023-05-16T10:09:54;8.03;;;6.03;;
12042;SDS011;6082;49.306;12.862;2023-05-16T10:12:20;9.90;;;6.40;;
12042;SDS011;6082;49.306;12.862;2023-05-16T10:14:53;8.07;;;5.87;;
12042;SDS011;6082;49.306;12.862;2023-05-16T10:17:20;8.20;;;6.33;;
12042;SDS011;6082;49.306;12.862;2023-05-16T10:19:46;7.93;;;6.50;;
12042;SDS011;6082;49.306;12.862;2023-05-16T10:22:14;7.40;;;5.70;;
12042;SDS011;6082;49.306;12.862;2023-05-16T10:24:53;9.23;;;5.83;;
12042;SDS011;6082;49.306;12.862;2023-05-16T10:27:28;9.90;;;6.00;;
12042;SDS011;6082;49.306;12.862;2023-05-16T10:29:55;7.07;;;6.03;;
12042;SDS011;6082;49.306;12.862;2023-05-16T10:32:24;6.43;;;5.83;;
12042;SDS011;6082;49.306;12.862;2023-05-16T10:34:52;8.50;;;5.90;;
12042;SDS011;6082;49.306;12.862;2023-05-16T10:37:19;7.43;;;5.80;;
12042;SDS011;6082;49.306;12.862;2023-05-16T10:39:46;7.63;;;5.63;;
12042;SDS011;6082;49.306;12.862;2023-05-16T10:42:12;6.67;;;6.03;;
12042;SDS011;6082;49.306;12.862;2023-05-16T10:44:42;10.17;;;6.00;;
12042;SDS011;6082;49.306;12.862;2023-05-16T10:47:08;7.33;;;5.47;;
12042;SDS011;6082;49.306;12.862;2023-05-16T10:49:33;6.63;;;5.40;;
12042;SDS011;6082;49.306;12.862;2023-05-16T10:52:09;6.33;;;5.47;;
12042;SDS011;6082;49.306;12.862;2023-05-16T10:54:40;8.87;;;5.63;;
12042;SDS011;6082;49.306;12.862;2023-05-16T10:57:14;7.47;;;5.90;;
12042;SDS011;6082;49.306;12.862;2023-05-16T10:59:45;6.83;;;5.70;;
12042;SDS011;6082;49.306;12.862;2023-05-16T11:02:31;6.97;;;5.33;;
12042;SDS011;6082;49.306;12.862;2023-05-16T11:05:03;6.40;;;5.23;;
12042;SDS011;6082;49.306;12.862;2023-05-16T11:07:31;6.40;;;5.27;;
12042;SDS011;6082;49.306;12.862;2023-05-16T11:10:03;6.00;;;5.20;;
12042;SDS011;6082;49.306;12.862;2023-05-16T11:12:50;6.70;;;5.13;;
12042;SDS011;6082;49.306;12.862;2023-05-16T11:15:25;5.73;;;5.13;;
12042;SDS011;6082;49.306;12.862;2023-05-16T11:20:33;6.77;;;5.90;;
12042;SDS011;6082;49.306;12.862;2023-05-16T11:25:46;8.83;;;5.63;;
12042;SDS011;6082;49.306;12.862;2023-05-16T11:28:16;7.40;;;5.93;;
12042;SDS011;6082;49.306;12.862;2023-05-16T11:30:53;6.87;;;6.17;;
12042;SDS011;6082;49.306;12.862;2023-05-16T11:33:22;6.87;;;5.13;;
12042;SDS011;6082;49.306;12.862;2023-05-16T11:36:01;7.57;;;5.53;;
12042;SDS011;6082;49.306;12.862;2023-05-16T11:38:30;7.27;;;5.50;;
12042;SDS011;6082;49.306;12.862;2023-05-16T11:41:05;7.60;;;5.27;;
12042;SDS011;6082;49.306;12.862;2023-05-16T11:43:39;6.03;;;4.97;;
12042;SDS011;6082;49.306;12.862;2023-05-16T11:46:09;5.20;;;4.50;;
12042;SDS011;6082;49.306;12.862;2023-05-16T11:48:39;6.57;;;4.57;;
12042;SDS011;6082;49.306;12.862;2023-05-16T11:51:05;7.23;;;5.03;;
12042;SDS011;6082;49.306;12.862;2023-05-16T11:53:31;6.20;;;4.90;;
12042;SDS011;6082;49.306;12.862;2023-05-16T11:55:58;5.07;;;4.57;;
12042;SDS011;6082;49.306;12.862;2023-05-16T11:58:26;4.97;;;4.00;;
12042;SDS011;6082;49.306;12.862;2023-05-16T12:00:52;6.37;;;4.20;;
12042;SDS011;6082;49.306;12.862;2023-05-16T12:03:18;5.60;;;3.60;;
12042;SDS011;6082;49.306;12.862;2023-05-16T12:05:48;4.40;;;4.00;;
12042;SDS011;6082;49.306;12.862;2023-05-16T12:08:16;5.20;;;3.67;;
12042;SDS011;6082;49.306;12.862;2023-05-16T12:10:44;3.80;;;3.07;;
12042;SDS011;6082;49.306;12.862;2023-05-16T12:13:10;4.33;;;3.93;;
12042;SDS011;6082;49.306;12.862;2023-05-16T12:15:36;3.53;;;3.20;;
12042;SDS011;6082;49.306;12.862;2023-05-16T12:18:02;5.00;;;3.37;;
12042;SDS011;6082;49.306;12.862;2023-05-16T12:20:28;4.83;;;3.87;;
12042;SDS011;6082;49.306;12.862;2023-05-16T12:22:56;3.80;;;3.50;;
12042;SDS011;6082;49.306;12.862;2023-05-16T12:25:29;4.53;;;3.77;;
12042;SDS011;6082;49.306;12.862;2023-05-16T12:28:06;4.67;;;3.80;;
12042;SDS011;6082;49.306;12.862;2023-05-16T12:30:32;5.40;;;4.47;;
12042;SDS011;6082;49.306;12.862;2023-05-16T12:33:08;7.70;;;5.03;;
12042;SDS011;6082;49.306;12.862;2023-05-16T12:35:39;8.37;;;5.20;;
12042;SDS011;6082;49.306;12.862;2023-05-16T12:38:10;5.97;;;4.97;;
12042;SDS011;6082;49.306;12.862;2023-05-16T12:40:37;6.23;;;4.87;;
12042;SDS011;6082;49.306;12.862;2023-05-16T12:43:25;5.93;;;4.97;;
12042;SDS011;6082;49.306;12.862;2023-05-16T12:45:55;6.47;;;5.30;;
12042;SDS011;6082;49.306;12.862;2023-05-16T12:48:22;7.73;;;5.70;;
12042;SDS011;6082;49.306;12.862;2023-05-16T12:50:53;6.23;;;4.90;;
12042;SDS011;6082;49.306;12.862;2023-05-16T12:53:19;6.13;;;4.43;;
12042;SDS011;6082;49.306;12.862;2023-05-16T12:55:45;7.50;;;4.90;;
12042;SDS011;6082;49.306;12.862;2023-05-16T12:58:11;8.00;;;4.40;;
12042;SDS011;6082;49.306;12.862;2023-05-16T13:00:37;6.57;;;4.47;;
12042;SDS011;6082;49.306;12.862;2023-05-16T13:03:06;6.13;;;4.47;;
12042;SDS011;6082;49.306;12.862;2023-05-16T13:05:32;6.57;;;4.33;;
12042;SDS011;6082;49.306;12.862;2023-05-16T13:07:59;6.97;;;5.00;;
12042;SDS011;6082;49.306;12.862;2023-05-16T13:10:26;8.23;;;5.80;;
12042;SDS011;6082;49.306;12.862;2023-05-16T13:12:52;7.10;;;5.67;;
12042;SDS011;6082;49.306;12.862;2023-05-16T13:15:18;8.87;;;6.20;;
12042;SDS011;6082;49.306;12.862;2023-05-16T13:17:43;9.43;;;6.43;;
12042;SDS011;6082;49.306;12.862;2023-05-16T13:20:09;7.80;;;6.40;;
12042;SDS011;6082;49.306;12.862;2023-05-16T13:22:39;7.83;;;5.80;;
12042;SDS011;6082;49.306;12.862;2023-05-16T13:25:05;9.40;;;6.97;;
12042;SDS011;6082;49.306;12.862;2023-05-16T13:27:32;11.40;;;7.57;;
12042;SDS011;6082;49.306;12.862;2023-05-16T13:29:58;11.23;;;7.57;;
12042;SDS011;6082;49.306;12.862;2023-05-16T13:32:24;10.50;;;8.10;;
12042;SDS011;6082;49.306;12.862;2023-05-16T13:34:50;11.30;;;8.20;;
12042;SDS011;6082;49.306;12.862;2023-05-16T13:37:16;10.70;;;7.50;;
12042;SDS011;6082;49.306;12.862;2023-05-16T13:39:43;10.23;;;7.40;;
12042;SDS011;6082;49.306;12.862;2023-05-16T13:42:08;12.77;;;7.97;;
12042;SDS011;6082;49.306;12.862;2023-05-16T13:44:34;11.40;;;6.80;;
12042;SDS011;6082;49.306;12.862;2023-05-16T13:47:00;9.93;;;6.47;;
12042;SDS011;6082;49.306;12.862;2023-05-16T13:49:27;7.93;;;6.87;;
12042;SDS011;6082;49.306;12.862;2023-05-16T13:51:53;9.33;;;6.07;;
12042;SDS011;6082;49.306;12.862;2023-05-16T13:54:19;8.00;;;6.23;;
12042;SDS011;6082;49.306;12.862;2023-05-16T13:56:48;8.87;;;6.63;;
12042;SDS011;6082;49.306;12.862;2023-05-16T13:59:14;8.33;;;6.43;;
12042;SDS011;6082;49.306;12.862;2023-05-16T14:01:40;8.27;;;6.13;;
12042;SDS011;6082;49.306;12.862;2023-05-16T14:04:06;8.73;;;6.37;;
12042;SDS011;6082;49.306;12.862;2023-05-16T14:06:31;11.67;;;7.47;;
12042;SDS011;6082;49.306;12.862;2023-05-16T14:08:58;12.13;;;7.53;;
12042;SDS011;6082;49.306;12.862;2023-05-16T14:11:23;11.93;;;7.47;;
12042;SDS011;6082;49.306;12.862;2023-05-16T14:13:54;10.70;;;7.57;;
12042;SDS011;6082;49.306;12.862;2023-05-16T14:16:20;8.53;;;6.73;;
12042;SDS011;6082;49.306;12.862;2023-05-16T14:18:47;9.10;;;6.70;;
12042;SDS011;6082;49.306;12.862;2023-05-16T14:21:12;10.50;;;7.37;;
12042;SDS011;6082;49.306;12.862;2023-05-16T14:23:38;9.97;;;7.17;;
12042;SDS011;6082;49.306;12.862;2023-05-16T14:26:04;11.57;;;7.23;;
12042;SDS011;6082;49.306;12.862;2023-05-16T14:28:30;10.10;;;7.50;;
12042;SDS011;6082;49.306;12.862;2023-05-16T14:30:59;9.40;;;6.80;;
12042;SDS011;6082;49.306;12.862;2023-05-16T14:33:26;7.77;;;6.10;;
12042;SDS011;6082;49.306;12.862;2023-05-16T14:35:52;6.80;;;5.70;;
12042;SDS011;6082;49.306;12.862;2023-05-16T14:38:18;7.53;;;5.50;;
12042;SDS011;6082;49.306;12.862;2023-05-16T14:40:45;8.03;;;6.03;;
12042;SDS011;6082;49.306;12.862;2023-05-16T14:43:11;8.33;;;6.10;;
12042;SDS011;6082;49.306;12.862;2023-05-16T14:45:37;7.27;;;5.27;;
12042;SDS011;6082;49.306;12.862;2023-05-16T14:48:04;7.60;;;5.80;;
12042;SDS011;6082;49.306;12.862;2023-05-16T14:50:31;7.87;;;6.13;;
12042;SDS011;6082;49.306;12.862;2023-05-16T14:52:56;8.37;;;6.37;;
12042;SDS011;6082;49.306;12.862;2023-05-16T14:55:22;10.87;;;7.30;;
12042;SDS011;6082;49.306;12.862;2023-05-16T14:57:48;13.00;;;8.07;;
12042;SDS011;6082;49.306;12.862;2023-05-16T15:00:14;10.70;;;6.90;;
12042;SDS011;6082;49.306;12.862;2023-05-16T15:02:43;12.23;;;8.23;;
12042;SDS011;6082;49.306;12.862;2023-05-16T15:05:10;14.83;;;9.73;;
12042;SDS011;6082;49.306;12.862;2023-05-16T15:07:35;15.43;;;10.00;;